Welcome!

Visit our other weather sites:

Template documentation
and downloads

And another site



There are no active watches, warnings or advisories

Nearby METAR Reports

   
KAVP - Albrightsville, PA
Updated: Oct 28 2021 4:54 am
Clear  
Clear  
   Wind: Calm
Wind: Calm
Temperature: 39.2°F
Dew Point: 37.4°F
Humidity: 93%
Barometer: 29.94 inHg
Clouds: Clear
Visibility: 10 mi
Cloud details: Clear
KAVP 280954Z 00000KT 10SM CLR 04/03 A2994 RMK AO2 SLP140 T00390028
KIWA - Apache Junction, AZ
Updated: Oct 28 2021 4:55 am
Clear  
Clear  
   Wind: ESE 5.8 mph
Wind: ESE 5.8 mph
Temperature: 53.6°F
Dew Point: 30.2°F
Humidity: 41%
Barometer: 30.07 inHg
Clouds: Clear
Visibility: 10 mi
Cloud details: Clear
KIWA 280955Z AUTO 11005KT 10SM CLR 12/M01 A3007 RMK AO2 T01241006
KPKB - Blue Rock, OH
Updated: Oct 28 2021 5:10 am
Partly Cloudy  
Partly Cloudy  
   Wind: East 4.6 mph
Wind: East 4.6 mph
Temperature: 48.2°F
Wind Chill: 46.4°F
Dew Point: 44.6°F
Humidity: 87%
Barometer: 29.83 inHg
Clouds: Partly Cloudy
Visibility: 10 mi
Cloud details: Partly Cloudy 244 m
KPKB 281010Z AUTO 09004KT 10SM SCT008 09/07 A2983 RMK AO2 T00890072
KHVN - Branford, CT
Updated: Oct 28 2021 4:53 am
Overcast  
Overcast  
   Wind: NNE 4.6 mph
Wind: NNE 4.6 mph
Temperature: 51.8°F
Dew Point: 44.6°F
Humidity: 77%
Barometer: 29.93 inHg
Clouds: Overcast
Visibility: 10 mi
Cloud details: Overcast 823 m
KHVN 280953Z 02004KT 10SM OVC027 11/07 A2993 RMK AO2 SLP134 T01110067
KPHX - Carefree, AZ
Updated: Oct 28 2021 4:51 am
Clear  
Clear  
   Wind: East 3.5 mph
Wind: East 3.5 mph
Temperature: 60.8°F
Dew Point: 35.6°F
Humidity: 39%
Barometer: 30.04 inHg
Clouds: Clear
Visibility: 10 mi
Cloud details: Clear
KPHX 280951Z 09003KT 10SM CLR 16/02 A3004 RMK AO2 SLP161 T01560017
 

Script developed by  Saratoga-weather.org Adapted for the template by  Weerstation Leuven